createdAt,value
2018-11-12T00:00:50.588Z,98.77
2018-11-12T00:01:50.576Z,98.31
2018-11-12T00:02:50.580Z,98.82
2018-11-12T00:03:50.547Z,98.72
2018-11-12T00:04:50.532Z,98.72
2018-11-12T00:05:50.521Z,98.41
2018-11-12T00:06:50.513Z,98.25
2018-11-12T00:07:50.536Z,98.86
2018-11-12T00:08:50.489Z,98.61
2018-11-12T00:09:50.479Z,98.72
2018-11-12T00:10:50.465Z,98.52
2018-11-12T00:11:50.457Z,98.61
2018-11-12T00:12:50.468Z,98.93
2018-11-12T00:13:50.437Z,98.82
2018-11-12T00:14:50.420Z,98.66
2018-11-12T00:15:50.420Z,98.72
2018-11-12T00:16:50.401Z,98.86
2018-11-12T00:17:50.411Z,98.56
2018-11-12T00:18:50.377Z,98.77
2018-11-12T00:19:50.364Z,98.11
2018-11-12T00:20:50.370Z,98.93
2018-11-12T00:21:50.420Z,98.72
2018-11-12T00:22:50.360Z,98.46
2018-11-12T00:23:50.321Z,98.72
2018-11-12T00:24:50.310Z,99.07
2018-11-12T00:25:50.298Z,98.93
2018-11-12T00:26:50.295Z,99.07
2018-11-12T00:27:50.299Z,98.21
2018-11-12T00:28:50.265Z,98.97
2018-11-12T00:29:50.257Z,98.31
2018-11-12T00:30:50.243Z,98.61
2018-11-12T00:31:50.234Z,99.13
2018-11-12T00:32:50.250Z,98.31
2018-11-12T00:33:50.210Z,98.72
2018-11-12T00:34:50.197Z,98.52
2018-11-12T00:35:50.184Z,98.72
2018-11-12T00:36:50.175Z,98.93
2018-11-12T00:37:50.189Z,98.77
2018-11-12T00:38:50.163Z,98.56
2018-11-12T00:39:50.143Z,98.21
2018-11-12T00:40:50.130Z,98.97
2018-11-12T00:41:50.121Z,98.72
2018-11-12T00:42:50.133Z,97.95
2018-11-12T00:43:50.107Z,98.25
2018-11-12T00:44:50.086Z,98.82
2018-11-12T00:45:50.076Z,99.13
2018-11-12T00:46:50.069Z,98.72
2018-11-12T00:47:50.078Z,98.93
2018-11-12T00:48:50.046Z,99.23
2018-11-12T00:49:50.032Z,99.23
2018-11-12T00:50:50.031Z,99.23
2018-11-12T00:51:50.010Z,99.58
2018-11-12T00:52:50.021Z,99.23
2018-11-12T00:53:49.994Z,99.54
2018-11-12T00:54:49.976Z,99.23
2018-11-12T00:55:49.967Z,99.54
2018-11-12T00:56:49.954Z,99.13
2018-11-12T00:57:49.973Z,99.13
2018-11-12T00:58:49.938Z,99.23
2018-11-12T00:59:49.919Z,99.23
2018-11-12T01:00:49.909Z,99.43
2018-11-12T01:01:49.897Z,99.33
2018-11-12T01:02:49.928Z,99.23
2018-11-12T01:03:49.877Z,99.27
2018-11-12T01:04:49.863Z,99.43
2018-11-12T01:05:49.855Z,99.23
2018-11-12T01:06:49.845Z,99.02
2018-11-12T01:07:49.856Z,99.43
2018-11-12T01:08:49.823Z,99.74
2018-11-12T01:09:49.822Z,99.33
2018-11-12T01:10:49.797Z,98.93
2018-11-12T01:11:49.792Z,99.13
2018-11-12T01:12:49.797Z,99.13
2018-11-12T01:13:49.763Z,99.33
2018-11-12T01:14:49.753Z,98.93
2018-11-12T01:15:49.750Z,99.43
2018-11-12T01:16:49.729Z,99.33
2018-11-12T01:17:49.749Z,99.84
2018-11-12T01:18:49.713Z,99.13
2018-11-12T01:19:49.704Z,98.93
2018-11-12T01:20:49.684Z,99.13
2018-11-12T01:21:49.674Z,99.13
2018-11-12T01:22:49.686Z,99.23
2018-11-12T01:23:49.656Z,99.23
2018-11-12T01:24:49.639Z,99.23
2018-11-12T01:25:49.627Z,99.33
2018-11-12T01:26:49.628Z,99.23
2018-11-12T01:27:49.633Z,99.43
2018-11-12T01:28:49.598Z,99.23
2018-11-12T01:29:49.582Z,99.54
2018-11-12T01:30:49.573Z,99.23
2018-11-12T01:31:49.561Z,99.13
2018-11-12T01:32:49.583Z,99.38
2018-11-12T01:33:49.544Z,99.23
2018-11-12T01:34:49.529Z,99.54
2018-11-12T01:35:49.515Z,99.23
2018-11-12T01:36:49.511Z,99.02
2018-11-12T01:37:49.517Z,99.13
2018-11-12T01:38:49.500Z,99.23
2018-11-12T01:39:49.474Z,98.93
2018-11-12T01:40:49.460Z,99.33
2018-11-12T01:41:49.463Z,99.43
2018-11-12T01:42:49.463Z,99.23
2018-11-12T01:43:49.429Z,99.43
2018-11-12T01:44:49.417Z,99.43
2018-11-12T01:45:49.415Z,99.99
2018-11-12T01:46:49.397Z,99.33
2018-11-12T01:47:49.387Z,99.33
2018-11-12T01:48:49.400Z,99.33
2018-11-12T01:49:49.360Z,99.54
2018-11-12T01:50:49.360Z,99.18
2018-11-12T01:51:49.341Z,99.64
2018-11-12T01:52:49.331Z,99.23
2018-11-12T01:53:49.341Z,99.33
2018-11-12T01:54:49.319Z,99.23
2018-11-12T01:55:49.295Z,99.54
2018-11-12T01:56:49.284Z,99.54
2018-11-12T01:57:49.275Z,99.23
2018-11-12T01:58:49.284Z,99.43
2018-11-12T01:59:49.249Z,99.13
2018-11-12T02:00:49.238Z,99.84
2018-11-12T02:01:49.360Z,99.33
2018-11-12T02:02:49.222Z,99.43
2018-11-12T02:03:49.227Z,98.93
2018-11-12T02:04:49.238Z,99.23
2018-11-12T02:05:49.194Z,99.48
2018-11-12T02:06:49.175Z,99.13
2018-11-12T02:07:49.168Z,99.13
2018-11-12T02:08:49.228Z,99.23
2018-11-12T02:09:49.154Z,99.02
2018-11-12T02:10:49.128Z,99.43
2018-11-12T02:11:49.114Z,99.38
2018-11-12T02:12:49.102Z,99.02
2018-11-12T02:13:49.117Z,99.33
2018-11-12T02:14:49.087Z,99.23
2018-11-12T02:15:49.074Z,99.23
2018-11-12T02:16:49.061Z,99.23
2018-11-12T02:17:49.048Z,99.02
2018-11-12T02:18:49.064Z,98.82
2018-11-12T02:19:49.032Z,99.02
2018-11-12T02:20:49.016Z,99.02
2018-11-12T02:21:49.004Z,99.23
2018-11-12T02:22:49.051Z,99.13
2018-11-12T02:23:49.005Z,99.43
2018-11-12T02:24:48.976Z,98.93
2018-11-12T02:25:48.963Z,99.95
2018-11-12T02:26:48.946Z,99.54
2018-11-12T02:27:48.934Z,99.13
2018-11-12T02:28:48.947Z,99.02
2018-11-12T02:29:48.912Z,99.02
2018-11-12T02:30:48.924Z,98.72
2018-11-12T02:31:48.888Z,99.54
2018-11-12T02:32:48.887Z,99.43
2018-11-12T02:33:48.898Z,99.33
2018-11-12T02:34:48.862Z,99.95
2018-11-12T02:35:48.846Z,99.02
2018-11-12T02:36:48.837Z,99.95
2018-11-12T02:37:48.835Z,99.54
2018-11-12T02:38:48.840Z,99.33
2018-11-12T02:39:48.803Z,99.33
2018-11-12T02:40:48.793Z,99.54
2018-11-12T02:41:48.785Z,99.95
2018-11-12T02:42:48.768Z,99.23
2018-11-12T02:43:48.784Z,99.33
2018-11-12T02:44:48.745Z,99.33
2018-11-12T02:45:48.741Z,99.99
2018-11-12T02:46:48.721Z,99.95
2018-11-12T02:47:48.713Z,99.23
2018-11-12T02:48:48.739Z,99.43
2018-11-12T02:49:48.688Z,99.23
2018-11-12T02:50:48.682Z,99.13
2018-11-12T02:51:48.677Z,99.13
2018-11-12T02:52:48.668Z,99.54
2018-11-12T02:53:48.669Z,99.13
2018-11-12T02:54:48.634Z,99.23
2018-11-12T02:55:48.625Z,99.13
2018-11-12T02:56:48.612Z,99.13
2018-11-12T02:57:48.610Z,99.13
2018-11-12T02:58:48.631Z,99.54
2018-11-12T02:59:48.579Z,99.02
2018-11-12T03:00:48.567Z,99.02
2018-11-12T03:01:48.561Z,99.43
2018-11-12T03:02:48.545Z,99.54
2018-11-12T03:03:48.557Z,99.13
2018-11-12T03:04:48.550Z,99.43
2018-11-12T03:05:48.512Z,99.23
2018-11-12T03:06:48.502Z,99.33
2018-11-12T03:07:48.488Z,99.13
2018-11-12T03:08:48.505Z,99.13
2018-11-12T03:09:48.469Z,99.84
2018-11-12T03:10:48.466Z,99.95
2018-11-12T03:11:48.445Z,99.02
2018-11-12T03:12:48.432Z,99.33
2018-11-12T03:13:48.445Z,99.43
2018-11-12T03:14:48.410Z,99.18
2018-11-12T03:15:48.401Z,99.23
2018-11-12T03:16:48.403Z,99.23
2018-11-12T03:17:48.375Z,99.18
2018-11-12T03:18:48.390Z,98.93
2018-11-12T03:19:48.354Z,99.74
2018-11-12T03:20:48.342Z,99.99
2018-11-12T03:21:48.340Z,99.43
2018-11-12T03:22:48.331Z,99.64
2018-11-12T03:23:48.335Z,99.54
2018-11-12T03:24:48.301Z,99.54
2018-11-12T03:25:48.288Z,99.84
2018-11-12T03:26:48.275Z,99.95
2018-11-12T03:27:48.428Z,99.33
2018-11-12T03:28:48.290Z,99.54
2018-11-12T03:29:48.243Z,99.74
2018-11-12T03:30:48.240Z,99.54
2018-11-12T03:31:48.222Z,99.43
2018-11-12T03:32:48.211Z,99.95
2018-11-12T03:33:48.225Z,99.54
2018-11-12T03:34:48.202Z,99.64
2018-11-12T03:35:48.177Z,99.43
2018-11-12T03:36:48.163Z,99.33
2018-11-12T03:37:48.153Z,99.54
2018-11-12T03:38:48.168Z,99.54
2018-11-12T03:39:48.259Z,99.84
2018-11-12T03:40:48.133Z,99.74
2018-11-12T03:41:48.108Z,99.64
2018-11-12T03:42:48.098Z,99.43
2018-11-12T03:43:48.112Z,99.33
2018-11-12T03:44:48.075Z,99.43
2018-11-12T03:45:48.065Z,99.43
2018-11-12T03:46:48.065Z,99.54
2018-11-12T03:47:48.041Z,99.64
2018-11-12T03:48:48.055Z,99.74
2018-11-12T03:49:48.019Z,99.74
2018-11-12T03:50:48.011Z,99.43
2018-11-12T03:51:47.996Z,99.43
2018-11-12T03:52:47.993Z,99.43
2018-11-12T03:53:47.980Z,99.54
2018-11-12T03:54:47.989Z,99.33
2018-11-12T03:55:47.954Z,99.43
2018-11-12T03:56:47.943Z,99.54
2018-11-12T03:57:47.931Z,99.33
2018-11-12T03:58:47.930Z,99.54
2018-11-12T03:59:47.930Z,99.54
2018-11-12T04:00:47.898Z,99.33
2018-11-12T04:01:47.889Z,99.43
2018-11-12T04:02:47.874Z,99.33
2018-11-12T04:03:47.865Z,99.43
2018-11-12T04:04:47.889Z,99.54
2018-11-12T04:05:47.839Z,99.54
2018-11-12T04:06:47.828Z,99.74
2018-11-12T04:07:47.820Z,99.64
2018-11-12T04:08:47.814Z,99.64
2018-11-12T04:09:47.821Z,99.64
2018-11-12T04:10:47.794Z,99.43
2018-11-12T04:11:47.776Z,99.54
2018-11-12T04:12:47.763Z,99.43
2018-11-12T04:13:47.752Z,99.99
2018-11-12T04:14:47.764Z,99.64
2018-11-12T04:15:47.728Z,99.33
2018-11-12T04:16:47.729Z,99.64
2018-11-12T04:17:47.704Z,99.43
2018-11-12T04:18:47.701Z,99.33
2018-11-12T04:19:47.708Z,99.64
2018-11-12T04:20:47.671Z,99.64
2018-11-12T04:21:47.664Z,99.74
2018-11-12T04:22:47.659Z,99.54
2018-11-12T04:23:47.640Z,99.99
2018-11-12T04:24:47.654Z,99.99
2018-11-12T04:25:47.622Z,99.33
2018-11-12T04:26:47.607Z,99.64
2018-11-12T04:27:47.595Z,99.54
2018-11-12T04:28:47.584Z,99.64
2018-11-12T04:29:47.611Z,99.43
2018-11-12T04:30:47.561Z,99.43
2018-11-12T04:31:47.555Z,99.33
2018-11-12T04:32:47.539Z,99.64
2018-11-12T04:33:47.535Z,99.54
2018-11-12T04:34:47.541Z,99.64
2018-11-12T04:35:47.512Z,99.99
2018-11-12T04:36:47.495Z,99.95
2018-11-12T04:37:47.483Z,99.74
2018-11-12T04:38:47.479Z,99.99
2018-11-12T04:39:47.483Z,99.99
2018-11-12T04:40:47.449Z,99.99
2018-11-12T04:41:47.453Z,99.99
2018-11-12T04:42:47.427Z,99.84
2018-11-12T04:43:47.421Z,99.54
2018-11-12T04:44:47.429Z,99.84
2018-11-12T04:45:47.394Z,99.64
2018-11-12T04:46:47.383Z,99.43
2018-11-12T04:47:47.379Z,99.84
2018-11-12T04:48:47.361Z,99.64
2018-11-12T04:49:47.373Z,99.84
2018-11-12T04:50:47.337Z,99.43
2018-11-12T04:51:47.326Z,99.54
2018-11-12T04:52:47.313Z,99.68
2018-11-12T04:53:47.395Z,99.99
2018-11-12T04:54:47.318Z,99.99
2018-11-12T04:55:47.286Z,99.95
2018-11-12T04:56:47.271Z,99.54
2018-11-12T04:57:47.259Z,99.74
2018-11-12T04:58:47.247Z,99.64
2018-11-12T04:59:47.268Z,99.54
2018-11-12T05:00:47.226Z,99.58
2018-11-12T05:01:47.281Z,99.43
2018-11-12T05:02:47.204Z,99.99
2018-11-12T05:03:47.194Z,99.84
2018-11-12T05:04:47.207Z,99.74
2018-11-12T05:05:47.182Z,99.99
2018-11-12T05:06:47.158Z,99.99
2018-11-12T05:07:47.146Z,99.64
2018-11-12T05:08:47.139Z,99.64
2018-11-12T05:09:47.154Z,99.99
2018-11-12T05:10:47.117Z,99.99
2018-11-12T05:11:47.113Z,99.64
2018-11-12T05:12:47.095Z,99.74
2018-11-12T05:13:47.084Z,99.74
2018-11-12T05:14:47.096Z,99.64
2018-11-12T05:15:47.057Z,99.84
2018-11-12T05:16:47.186Z,99.54
2018-11-12T05:17:47.036Z,99.33
2018-11-12T05:18:47.032Z,99.33
2018-11-12T05:19:47.040Z,99.43
2018-11-12T05:20:47.012Z,99.54
2018-11-12T05:21:46.994Z,99.43
2018-11-12T05:22:46.983Z,99.84
2018-11-12T05:23:46.968Z,99.99
2018-11-12T05:24:46.996Z,99.99
2018-11-12T05:25:46.945Z,99.64
2018-11-12T05:26:46.935Z,99.64
2018-11-12T05:27:46.927Z,99.43
2018-11-12T05:28:46.912Z,99.99
2018-11-12T05:29:46.924Z,99.99
2018-11-12T05:30:46.903Z,99.64
2018-11-12T05:31:46.880Z,99.64
2018-11-12T05:32:46.873Z,99.33
2018-11-12T05:33:46.856Z,99.43
2018-11-12T05:34:46.872Z,99.64
2018-11-12T05:35:46.836Z,99.64
2018-11-12T05:36:46.830Z,99.43
2018-11-12T05:37:46.846Z,99.64
2018-11-12T05:38:46.800Z,99.74
2018-11-12T05:39:46.797Z,99.43
2018-11-12T05:40:46.801Z,99.33
2018-11-12T05:41:46.767Z,99.33
2018-11-12T05:42:46.759Z,99.64
2018-11-12T05:43:46.761Z,99.33
2018-11-12T05:44:46.748Z,99.33
2018-11-12T05:45:46.746Z,99.33
2018-11-12T05:46:46.715Z,99.64
2018-11-12T05:47:46.699Z,99.54
2018-11-12T05:48:46.690Z,99.43
2018-11-12T05:49:46.693Z,99.54
2018-11-12T05:50:46.689Z,99.43
2018-11-12T05:51:46.657Z,99.64
2018-11-12T05:52:46.665Z,99.64
2018-11-12T05:53:46.633Z,99.64
2018-11-12T05:54:46.625Z,99.43
2018-11-12T05:55:46.646Z,99.33
2018-11-12T05:56:46.599Z,99.23
2018-11-12T05:57:46.591Z,99.33
2018-11-12T05:58:46.605Z,99.43
2018-11-12T05:59:46.568Z,99.23
2018-11-12T06:00:46.580Z,99.54
2018-11-12T06:01:46.550Z,99.84
2018-11-12T06:02:46.533Z,99.95
2018-11-12T06:03:46.521Z,99.23
2018-11-12T06:04:46.541Z,99.02
2018-11-12T06:05:46.523Z,99.02
2018-11-12T06:06:46.490Z,99.33
2018-11-12T06:07:46.487Z,99.43
2018-11-12T06:08:46.466Z,99.99
2018-11-12T06:09:46.455Z,99.33
2018-11-12T06:10:46.468Z,99.43
2018-11-12T06:11:46.438Z,99.54
2018-11-12T06:12:46.426Z,99.02
2018-11-12T06:13:46.419Z,99.84
2018-11-12T06:14:46.398Z,99.43
2018-11-12T06:15:46.413Z,99.43
2018-11-12T06:16:46.378Z,99.33
2018-11-12T06:17:46.374Z,99.64
2018-11-12T06:18:46.354Z,99.43
2018-11-12T06:19:46.342Z,99.74
2018-11-12T06:20:46.370Z,99.54
2018-11-12T06:21:46.323Z,99.54
2018-11-12T06:22:46.401Z,99.33
2018-11-12T06:23:46.302Z,99.23
2018-11-12T06:24:46.287Z,99.95
2018-11-12T06:25:46.300Z,99.54
2018-11-12T06:26:46.275Z,99.33
2018-11-12T06:27:46.258Z,99.43
2018-11-12T06:28:46.245Z,99.02
2018-11-12T06:29:46.234Z,98.82
2018-11-12T06:30:46.249Z,99.54
2018-11-12T06:31:46.211Z,99.33
2018-11-12T06:32:46.199Z,99.43
2018-11-12T06:33:46.197Z,99.43
2018-11-12T06:34:46.177Z,99.23
2018-11-12T06:35:46.189Z,99.13
2018-11-12T06:36:46.186Z,99.64
2018-11-12T06:37:46.143Z,99.64
2018-11-12T06:38:46.137Z,99.95
2018-11-12T06:39:46.136Z,99.54
2018-11-12T06:40:46.140Z,99.95
2018-11-12T06:41:46.098Z,99.95
2018-11-12T06:42:46.210Z,99.95
2018-11-12T06:43:46.076Z,99.54
2018-11-12T06:44:46.066Z,99.74
2018-11-12T06:45:46.089Z,99.33
2018-11-12T06:46:46.044Z,99.33
2018-11-12T06:47:46.032Z,99.33
2018-11-12T06:48:46.021Z,99.49
2018-11-12T06:49:46.011Z,98.93
2018-11-12T06:50:46.023Z,98.93
2018-11-12T06:51:45.991Z,99.39
2018-11-12T06:52:46.044Z,99.99
2018-11-12T06:53:45.965Z,99.49
2018-11-12T06:54:45.954Z,99.33
2018-11-12T06:55:45.967Z,99.33
2018-11-12T06:56:45.931Z,99.23
2018-11-12T06:57:45.923Z,99.23
2018-11-12T06:58:45.908Z,99.39
2018-11-12T06:59:45.913Z,99.29
2018-11-12T07:00:45.942Z,99.29
2018-11-12T07:01:45.877Z,99.08
2018-11-12T07:02:45.863Z,99.79
2018-11-12T07:03:45.855Z,99.39
2018-11-12T07:04:45.844Z,99.29
2018-11-12T07:05:45.864Z,99.79
2018-11-12T07:06:45.866Z,99.59
2018-11-12T07:07:45.898Z,99.49
2018-11-12T07:08:45.797Z,99.49
2018-11-12T07:09:45.790Z,99.29
2018-11-12T07:10:45.802Z,99.59
2018-11-12T07:11:45.765Z,99.29
2018-11-12T07:12:45.761Z,99.29
2018-11-12T07:13:45.746Z,99.39
2018-11-12T07:14:45.778Z,99.34
2018-11-12T07:15:45.803Z,99.34
2018-11-12T07:16:45.738Z,99.54
2018-11-12T07:17:45.701Z,99.44
2018-11-12T07:18:45.751Z,99.49
2018-11-12T07:19:45.684Z,99.29
2018-11-12T07:20:45.671Z,99.85
2018-11-12T07:21:45.677Z,99.39
2018-11-12T07:22:45.678Z,99.24
2018-11-12T07:23:45.629Z,98.93
2018-11-12T07:24:45.626Z,99.14
2018-11-12T07:25:45.611Z,99.29
2018-11-12T07:26:45.623Z,99.24
2018-11-12T07:27:45.591Z,98.73
2018-11-12T07:28:45.575Z,99.14
2018-11-12T07:29:45.562Z,98.83
2018-11-12T07:30:45.587Z,99.04
2018-11-12T07:31:45.567Z,98.93
2018-11-12T07:32:45.548Z,99.04
2018-11-12T07:33:45.520Z,98.73
2018-11-12T07:34:45.518Z,98.63
2018-11-12T07:35:45.495Z,99.14
2018-11-12T07:36:45.510Z,99.44
2018-11-12T07:37:45.479Z,98.02
2018-11-12T07:38:45.468Z,98.11
2018-11-12T07:39:45.458Z,99.34
2018-11-12T07:40:45.698Z,99.04
2018-11-12T07:41:45.507Z,98.22
2018-11-12T07:42:45.419Z,98.83
2018-11-12T07:43:45.418Z,98.11
2018-11-12T07:44:45.395Z,98.52
2018-11-12T07:45:45.385Z,98.68
2018-11-12T07:46:45.399Z,98.27
2018-11-12T07:47:45.362Z,98.27
2018-11-12T07:48:45.396Z,98.27
2018-11-12T07:49:45.357Z,98.27
2018-11-12T07:50:45.337Z,98.58
2018-11-12T07:51:45.346Z,98.38
2018-11-12T07:52:45.315Z,98.27
2018-11-12T07:53:45.298Z,98.38
2018-11-12T07:54:45.287Z,98.58
2018-11-12T07:55:45.286Z,98.68
2018-11-12T07:56:45.285Z,98.27
2018-11-12T07:57:45.253Z,98.27
2018-11-12T07:58:45.239Z,98.18
2018-11-12T07:59:45.229Z,98.23
2018-11-12T08:00:45.223Z,97.62
2018-11-12T08:01:45.235Z,97.62
2018-11-12T08:02:45.203Z,98.23
2018-11-12T08:03:45.302Z,98.33
2018-11-12T08:04:45.173Z,98.33
2018-11-12T08:05:45.162Z,97.88
2018-11-12T08:06:45.173Z,98.08
2018-11-12T08:07:45.153Z,97.88
2018-11-12T08:08:45.149Z,97.57
2018-11-12T08:09:45.227Z,97.57
2018-11-12T08:10:45.105Z,97.88
2018-11-12T08:11:45.123Z,97.53
2018-11-12T08:12:45.084Z,97.63
2018-11-12T08:13:45.102Z,97.73
2018-11-12T08:14:45.110Z,97.63
2018-11-12T08:15:45.048Z,97.32
2018-11-12T08:16:45.063Z,96.92
2018-11-12T08:17:45.133Z,97.32
2018-11-12T08:18:45.019Z,97.32
2018-11-12T08:19:45.008Z,97.42
2018-11-12T08:20:44.996Z,97.02
2018-11-12T08:21:45.124Z,97.32
2018-11-12T08:22:44.979Z,97.12
2018-11-12T08:23:44.968Z,96.77
2018-11-12T08:24:45.152Z,96.51
2018-11-12T08:25:44.936Z,95.75
2018-11-12T08:26:44.950Z,96.15
2018-11-12T08:27:44.914Z,96.15
2018-11-12T08:28:44.906Z,96.26
2018-11-12T08:29:45.033Z,96.06
2018-11-12T08:30:44.919Z,96.36
2018-11-12T08:31:44.898Z,96.11
2018-11-12T08:32:44.904Z,96.56
2018-11-12T08:33:44.850Z,95.75
2018-11-12T08:34:44.840Z,95.45
2018-11-12T08:35:44.839Z,96.06
2018-11-12T08:36:44.827Z,96.15
2018-11-12T08:37:44.828Z,96.36
2018-11-12T08:38:44.797Z,95.95
2018-11-12T08:39:44.996Z,95.95
2018-11-12T08:40:45.002Z,95.95
2018-11-12T08:41:44.782Z,96.06
2018-11-12T08:42:44.751Z,95.95
2018-11-12T08:43:44.740Z,96.15
2018-11-12T08:44:44.727Z,95.49
2018-11-12T08:45:44.716Z,96.51
2018-11-12T08:46:44.711Z,96.15
2018-11-12T08:47:44.717Z,96.51
2018-11-12T08:48:44.697Z,96.20
2018-11-12T08:49:44.726Z,96.25
2018-11-12T08:50:44.663Z,96.20
2018-11-12T08:51:44.648Z,96.20
2018-11-12T08:52:44.661Z,96.51
2018-11-12T08:53:44.630Z,96.00
2018-11-12T08:54:44.615Z,96.41
2018-11-12T08:55:44.683Z,96.30
2018-11-12T08:56:44.597Z,97.02
2018-11-12T08:57:44.619Z,96.10
2018-11-12T08:58:44.584Z,96.10
2018-11-12T08:59:44.675Z,96.20
2018-11-12T09:00:44.595Z,96.51
2018-11-12T09:01:44.543Z,96.10
2018-11-12T09:02:44.556Z,96.10
2018-11-12T09:03:44.511Z,95.65
2018-11-12T09:04:44.502Z,96.56
2018-11-12T09:05:44.516Z,96.10
2018-11-12T09:06:44.477Z,96.26
2018-11-12T09:07:44.492Z,96.36
2018-11-12T09:08:44.491Z,96.36
2018-11-12T09:09:44.447Z,95.45
2018-11-12T09:10:44.435Z,95.61
2018-11-12T09:11:44.422Z,95.40
2018-11-12T09:12:44.435Z,95.30
2018-11-12T09:13:44.893Z,94.63
2018-11-12T09:14:44.404Z,94.38
2018-11-12T09:15:44.401Z,94.69
2018-11-12T09:16:44.384Z,94.38
2018-11-12T09:17:44.409Z,93.57
2018-11-12T09:18:44.344Z,93.93
2018-11-12T09:19:44.345Z,94.13
2018-11-12T09:20:44.322Z,94.34
2018-11-12T09:21:44.315Z,93.73
2018-11-12T09:22:44.337Z,94.13
2018-11-12T09:23:44.312Z,93.83
2018-11-12T09:24:44.278Z,94.13
2018-11-12T09:25:44.270Z,93.63
2018-11-12T09:26:44.254Z,94.20
2018-11-12T09:27:44.266Z,93.99
2018-11-12T09:28:44.239Z,93.07
2018-11-12T09:29:44.223Z,93.18
2018-11-12T09:30:45.595Z,93.07
2018-11-12T09:31:44.205Z,93.28
2018-11-12T09:32:44.647Z,92.87
2018-11-12T09:33:44.253Z,92.83
2018-11-12T09:34:44.165Z,92.12
2018-11-12T09:35:44.153Z,92.83
2018-11-12T09:36:44.228Z,93.24
2018-11-12T09:37:44.154Z,92.79
2018-11-12T09:38:44.139Z,92.22
2018-11-12T09:39:44.108Z,92.28
2018-11-12T09:40:44.107Z,92.48
2018-11-12T09:41:44.100Z,92.79
2018-11-12T09:42:44.103Z,92.07
2018-11-12T09:43:44.064Z,92.48
2018-11-12T09:44:44.063Z,91.87
2018-11-12T09:45:44.050Z,91.93
2018-11-12T09:46:44.033Z,90.41
2018-11-12T09:47:44.052Z,90.88
2018-11-12T09:48:44.026Z,90.47
2018-11-12T09:49:43.997Z,90.47
2018-11-12T09:50:43.992Z,89.45
2018-11-12T09:51:43.974Z,90.36
2018-11-12T09:52:43.988Z,90.47
2018-11-12T09:53:44.168Z,89.55
2018-11-12T09:54:43.974Z,89.96
2018-11-12T09:55:43.931Z,90.16
2018-11-12T09:56:43.925Z,89.55
2018-11-12T09:57:43.935Z,89.35
2018-11-12T09:58:43.898Z,89.65
2018-11-12T09:59:43.893Z,89.25
2018-11-12T10:00:44.147Z,89.25
2018-11-12T10:01:44.482Z,87.99
2018-11-12T10:02:44.880Z,88.80
2018-11-12T10:03:44.888Z,88.20
2018-11-12T10:04:45.561Z,86.73
2018-11-12T10:05:44.944Z,86.43
2018-11-12T10:06:45.251Z,87.24
2018-11-12T10:07:45.702Z,87.04
2018-11-12T10:08:46.344Z,87.71
2018-11-12T10:09:45.845Z,88.21
2018-11-12T10:10:45.498Z,86.90
2018-11-12T10:11:45.650Z,87.20
2018-11-12T10:12:46.861Z,86.79
2018-11-12T10:13:47.196Z,87.40
2018-11-12T10:14:46.058Z,87.60
2018-11-12T10:15:47.076Z,86.69
2018-11-12T10:16:45.827Z,86.08
2018-11-12T10:17:46.605Z,86.29
2018-11-12T10:18:43.674Z,86.49
2018-11-12T10:19:43.738Z,86.45
2018-11-12T10:20:43.652Z,86.55
2018-11-12T10:21:43.645Z,86.76
2018-11-12T10:22:43.656Z,84.83
2018-11-12T10:23:43.619Z,84.33
2018-11-12T10:24:43.606Z,84.83
2018-11-12T10:25:43.614Z,84.83
2018-11-12T10:26:43.586Z,84.73
2018-11-12T10:27:43.605Z,84.02
2018-11-12T10:28:43.562Z,84.12
2018-11-12T10:29:43.552Z,83.01
2018-11-12T10:30:43.551Z,83.37
2018-11-12T10:31:43.537Z,84.19
2018-11-12T10:32:43.539Z,82.16
2018-11-12T10:33:43.508Z,82.53
2018-11-12T10:34:43.496Z,82.62
2018-11-12T10:35:43.485Z,82.83
2018-11-12T10:36:43.474Z,83.88
2018-11-12T10:37:43.532Z,82.22
2018-11-12T10:38:43.454Z,82.73
2018-11-12T10:39:43.474Z,82.36
2018-11-12T10:40:43.453Z,81.92
2018-11-12T10:41:43.422Z,82.26
2018-11-12T10:42:43.464Z,82.06
2018-11-12T10:43:43.418Z,82.22
2018-11-12T10:44:43.383Z,82.32
2018-11-12T10:45:43.380Z,83.03
2018-11-12T10:46:43.364Z,81.01
2018-11-12T10:47:43.432Z,82.02
2018-11-12T10:48:43.345Z,82.28
2018-11-12T10:49:43.329Z,81.78
2018-11-12T10:50:43.336Z,79.75
2018-11-12T10:51:43.306Z,80.87
2018-11-12T10:52:43.334Z,79.75
2018-11-12T10:53:50.043Z,80.16
2018-11-12T10:54:43.432Z,80.87
2018-11-12T10:55:43.447Z,79.55
2018-11-12T10:56:43.277Z,80.32
2018-11-12T10:57:43.254Z,79.66
2018-11-12T10:58:43.254Z,79.72
2018-11-12T10:59:43.271Z,79.32
2018-11-12T11:00:43.225Z,78.61
2018-11-12T11:01:43.195Z,79.11
2018-11-12T11:02:43.193Z,78.71
2018-11-12T11:03:43.198Z,78.71
2018-11-12T11:04:43.173Z,77.90
2018-11-12T11:05:43.153Z,78.41
2018-11-12T11:06:43.140Z,77.90
2018-11-12T11:07:43.475Z,78.71
2018-11-12T11:08:43.147Z,78.41
2018-11-12T11:09:43.106Z,79.32
2018-11-12T11:10:43.095Z,79.21
2018-11-12T11:11:43.086Z,78.20
2018-11-12T11:12:43.092Z,78.20
2018-11-12T11:13:43.132Z,77.29
2018-11-12T11:14:43.079Z,77.90
2018-11-12T11:15:43.038Z,77.97
2018-11-12T11:16:43.036Z,77.56
2018-11-12T11:17:43.016Z,77.06
2018-11-12T11:18:43.032Z,77.06
2018-11-12T11:19:43.050Z,77.73
2018-11-12T11:20:42.983Z,77.56
2018-11-12T11:21:42.972Z,77.97
2018-11-12T11:22:42.961Z,77.97
2018-11-12T11:23:42.978Z,78.57
2018-11-12T11:24:42.943Z,78.57
2018-11-12T11:25:42.989Z,78.77
2018-11-12T11:26:42.986Z,77.97
2018-11-12T11:27:42.908Z,78.88
2018-11-12T11:28:42.938Z,79.79
2018-11-12T11:29:42.887Z,79.58
2018-11-12T11:30:42.877Z,79.58
2018-11-12T11:31:42.874Z,79.68
2018-11-12T11:32:42.848Z,78.71
2018-11-12T11:33:42.861Z,77.46
2018-11-12T11:34:42.837Z,77.76
2018-11-12T11:35:42.816Z,77.26
2018-11-12T11:36:42.855Z,78.47
2018-11-12T11:37:42.825Z,78.43
2018-11-12T11:38:42.807Z,78.06
2018-11-12T11:39:42.780Z,78.03
2018-11-12T11:40:42.876Z,76.95
2018-11-12T11:41:42.749Z,77.56
2018-11-12T11:42:42.739Z,77.83
2018-11-12T11:43:42.766Z,77.53
2018-11-12T11:44:42.720Z,77.76
2018-11-12T11:45:42.704Z,77.86
2018-11-12T11:46:42.707Z,77.93
2018-11-12T11:47:42.820Z,76.15
2018-11-12T11:48:42.752Z,76.01
2018-11-12T11:49:42.658Z,76.21
2018-11-12T11:50:42.687Z,77.53
2018-11-12T11:51:42.681Z,77.83
2018-11-12T11:52:42.627Z,77.97
2018-11-12T11:53:42.641Z,78.57
2018-11-12T11:54:42.603Z,77.66
2018-11-12T11:55:42.605Z,78.37
2018-11-12T11:56:42.709Z,78.57
2018-11-12T11:57:42.765Z,76.65
2018-11-12T11:58:42.582Z,77.86
2018-11-12T11:59:42.549Z,78.57
2018-11-12T12:00:42.547Z,77.26
2018-11-12T12:01:42.597Z,77.86
2018-11-12T12:02:42.559Z,77.97
2018-11-12T12:03:42.557Z,77.36
2018-11-12T12:04:42.503Z,77.76
2018-11-12T12:05:42.488Z,77.36
2018-11-12T12:06:42.469Z,77.62
2018-11-12T12:07:42.457Z,78.13
2018-11-12T12:08:42.495Z,75.91
2018-11-12T12:09:42.443Z,78.53
2018-11-12T12:10:42.426Z,77.93
2018-11-12T12:11:42.414Z,77.83
2018-11-12T12:12:42.403Z,78.13
2018-11-12T12:13:42.414Z,78.74
2018-11-12T12:14:42.379Z,79.44
2018-11-12T12:15:42.375Z,78.63
2018-11-12T12:16:42.361Z,78.33
2018-11-12T12:17:42.347Z,78.03
2018-11-12T12:18:42.484Z,79.34
2018-11-12T12:19:42.344Z,78.50
2018-11-12T12:20:42.314Z,78.53
2018-11-12T12:21:42.303Z,78.39
2018-11-12T12:22:42.292Z,77.28
2018-11-12T12:23:42.286Z,77.99
2018-11-12T12:24:42.434Z,77.69
2018-11-12T12:25:42.361Z,79.30
2018-11-12T12:26:42.248Z,77.79
2018-11-12T12:27:42.281Z,78.23
2018-11-12T12:28:42.231Z,76.31
2018-11-12T12:29:42.265Z,77.73
2018-11-12T12:30:42.235Z,77.93
2018-11-12T12:31:42.233Z,77.73
2018-11-12T12:32:42.203Z,79.10
2018-11-12T12:33:42.171Z,78.63
2018-11-12T12:34:42.193Z,77.19
2018-11-12T12:35:42.215Z,78.19
2018-11-12T12:36:42.228Z,77.79
2018-11-12T12:37:42.171Z,75.43
2018-11-12T12:38:42.114Z,75.43
2018-11-12T12:39:42.126Z,75.74
2018-11-12T12:40:42.100Z,75.54
2018-11-12T12:41:42.078Z,75.63
2018-11-12T12:42:42.068Z,75.13
2018-11-12T12:43:42.059Z,74.52
2018-11-12T12:44:42.112Z,76.04
2018-11-12T12:45:42.261Z,74.99
2018-11-12T12:46:42.028Z,75.84
2018-11-12T12:47:42.021Z,75.43
2018-11-12T12:48:42.003Z,75.80
2018-11-12T12:49:42.057Z,73.28
2018-11-12T12:50:41.988Z,74.05
2018-11-12T12:51:41.978Z,74.55
2018-11-12T12:52:41.957Z,73.85